North Arlington, New Jersey
Current Conditions -  °F | °C
As of 5:51 AM on Thursday 18 Dec 2014 (Local Time) from KTEB Reporting Station
Clear Clear  
Wind Chill: 29°   Ceiling: Unl
Heat Index: 38°   Visibility: 10mi
Dew Point: 23°   Wind: 15mph
Humidity: 55%   Direction: 320°NW
Pressure: 29.93"   Gusts: 23mph
Location:  40.79°N, 74.13°W
Report Text: KTEB 181051Z 32013G20KT 10SM CLR 03/M05 A2993 RMK AO2 SLP135 T00331050
Loading
Personal Weather Stations






























Interactive Weather Map New forecast layout! Learn more

10-Day Weather Forecast

Advertisements
Track Severe Weather on mobile